Time;durP1;ratioP1;P1;durP2;ratioP2;P2;SDS_P1;SDS_P2;PMS_P1;PMS_P2;Temp;Humidity;BMP_temperature;BMP_pressure;BME280_temperature;BME280_humidity;BME280_pressure;Samples;Min_cycle;Max_cycle;Signal;HPM_P1;HPM_P2
2023/03/27 00:01:53;;;;;;;;;;;;;;;4.51;68.74;99790.88;4994942;28;5057;-83
2023/03/27 00:04:20;;;;;;;;;;;;;;;4.47;68.91;99792.31;5002700;28;5121;-84
2023/03/27 00:06:47;;;;;;;;;;;;;;;4.48;68.93;99785.94;5011855;28;4633;-83
2023/03/27 00:09:15;;;;;;;;;;;;;;;4.50;68.80;99791.06;5006624;28;4172;-83
2023/03/27 00:11:42;;;;;;;;;;;;;;;4.49;69.00;99789.44;5013798;28;5229;-84
2023/03/27 00:14:09;;;;;;;;;;;;;;;4.49;68.71;99794.78;5016956;28;5118;-84
2023/03/27 00:16:36;;;;;;;;;;;;;;;4.46;68.81;99795.97;4999632;28;4817;-83
2023/03/27 00:19:03;;;;;;;;;;;;;;;4.46;68.77;99795.97;4994098;28;4898;-84
2023/03/27 00:21:29;;;;;;;;;;;;;;;4.49;68.74;99797.44;5014795;28;3944;-84
2023/03/27 00:23:55;;;;;;;;;;;;;;;4.47;68.36;99797.66;4996679;28;4358;-84
2023/03/27 00:26:22;;;;;;;;;;;;;;;4.50;68.45;99802.59;5000043;28;4502;-84
2023/03/27 00:28:49;;;;;;;;;;;;;;;4.48;68.51;99798.47;4998188;28;4894;-83
2023/03/27 00:31:15;;;;;;;;;;;;;;;4.48;68.72;99803.81;5010840;28;4945;-84
2023/03/27 00:33:42;;;;;;;;;;;;;;;4.45;68.41;99794.34;5016266;28;4914;-84
2023/03/27 00:36:09;;;;;;;;;;;;;;;4.47;68.63;99796.81;5012234;28;4991;-84
2023/03/27 00:38:35;;;;;;;;;;;;;;;4.46;68.57;99798.66;5009992;28;4946;-84
2023/03/27 00:41:02;;;;;;;;;;;;;;;4.45;68.64;99804.19;5014989;28;4945;-84
2023/03/27 00:43:28;;;;;;;;;;;;;;;4.45;68.68;99798.88;5010817;28;4629;-84
2023/03/27 00:45:55;;;;;;;;;;;;;;;4.45;68.57;99796.19;5012518;28;5039;-84
2023/03/27 00:48:22;;;;;;;;;;;;;;;4.53;68.24;99794.19;4998888;28;4977;-84
2023/03/27 00:50:48;;;;;;;;;;;;;;;4.47;68.48;99791.47;5012696;28;5076;-84
2023/03/27 00:53:15;;;;;;;;;;;;;;;4.47;68.31;99786.13;5011775;28;4682;-84
2023/03/27 00:55:41;;;;;;;;;;;;;;;4.47;68.27;99789.66;4999978;28;4007;-84
2023/03/27 00:58:08;;;;;;;;;;;;;;;4.50;68.37;99783.91;5016670;28;5362;-84
2023/03/27 01:00:34;;;;;;;;;;;;;;;4.47;68.37;99783.47;4995301;28;4477;-83
2023/03/27 01:03:01;;;;;;;;;;;;;;;4.45;68.31;99789.00;5012832;28;4854;-84
2023/03/27 01:05:28;;;;;;;;;;;;;;;4.48;68.17;99795.81;5004041;28;4919;-84
2023/03/27 01:07:55;;;;;;;;;;;;;;;4.49;68.00;99792.91;5004146;28;5065;-84
2023/03/27 01:10:21;;;;;;;;;;;;;;;4.47;68.18;99791.47;5013916;28;4745;-84
2023/03/27 01:12:48;;;;;;;;;;;;;;;4.47;68.32;99794.13;4998092;28;4948;-85
2023/03/27 01:15:15;;;;;;;;;;;;;;;4.44;68.38;99791.88;4998067;28;4903;-84
2023/03/27 01:17:42;;;;;;;;;;;;;;;4.50;67.83;99791.91;5012730;28;4545;-85
2023/03/27 01:20:09;;;;;;;;;;;;;;;4.43;67.94;99798.22;5011378;28;4863;-84
2023/03/27 01:22:35;;;;;;;;;;;;;;;4.44;68.20;99810.53;4995054;28;4972;-84
2023/03/27 01:25:02;;;;;;;;;;;;;;;4.43;68.21;99804.38;4992682;28;4951;-84
2023/03/27 01:27:29;;;;;;;;;;;;;;;4.42;68.03;99810.75;5019327;28;5009;-84
2023/03/27 01:29:56;;;;;;;;;;;;;;;4.43;68.12;99809.72;5016008;28;4669;-83
2023/03/27 01:32:23;;;;;;;;;;;;;;;4.47;67.87;99816.31;5011973;28;3878;-84
2023/03/27 01:34:49;;;;;;;;;;;;;;;4.45;67.97;99809.53;5016404;28;5006;-82
2023/03/27 01:37:16;;;;;;;;;;;;;;;4.48;67.76;99809.13;5011828;28;4805;-85
2023/03/27 01:39:43;;;;;;;;;;;;;;;4.53;67.83;99810.19;4995635;28;4993;-85
2023/03/27 01:42:10;;;;;;;;;;;;;;;4.54;67.54;99819.00;4999948;28;4685;-84
2023/03/27 01:44:36;;;;;;;;;;;;;;;4.48;67.83;99817.13;4993762;28;4689;-84
2023/03/27 01:47:03;;;;;;;;;;;;;;;4.47;67.89;99810.97;4995461;28;4839;-84
2023/03/27 01:49:30;;;;;;;;;;;;;;;4.44;67.82;99810.53;4981808;28;4300;-85
2023/03/27 01:51:56;;;;;;;;;;;;;;;4.42;67.70;99808.06;4993352;28;4497;-85
2023/03/27 01:54:23;;;;;;;;;;;;;;;4.47;67.80;99805.66;5004051;28;3820;-85
2023/03/27 01:56:52;;;;;;;;;;;;;;;4.40;68.02;99803.97;4989891;28;3748;-85
2023/03/27 01:59:18;;;;;;;;;;;;;;;4.39;67.82;99795.16;4993983;28;4457;-84
2023/03/27 02:01:45;;;;;;;;;;;;;;;4.48;67.96;99798.47;4992676;28;3777;-84
2023/03/27 02:04:12;;;;;;;;;;;;;;;4.51;67.50;99800.72;4996488;28;3908;-83
2023/03/27 02:06:39;;;;;;;;;;;;;;;4.43;67.54;99791.03;4986136;28;4935;-84
2023/03/27 02:09:07;;;;;;;;;;;;;;;4.41;67.70;99795.78;5006412;28;5049;-83
2023/03/27 02:11:34;;;;;;;;;;;;;;;4.42;67.68;99788.59;5004518;28;4893;-84
2023/03/27 02:14:00;;;;;;;;;;;;;;;4.42;67.65;99797.41;4991774;28;4105;-85
2023/03/27 02:16:27;;;;;;;;;;;;;;;4.42;67.68;99789.41;4986847;28;4793;-84
2023/03/27 02:18:55;;;;;;;;;;;;;;;4.49;67.25;99781.44;5007347;28;4835;-86
2023/03/27 02:21:22;;;;;;;;;;;;;;;4.47;67.64;99783.47;5004457;28;4918;-83
2023/03/27 02:23:49;;;;;;;;;;;;;;;4.42;67.49;99780.59;4992059;28;4523;-84
2023/03/27 02:26:16;;;;;;;;;;;;;;;4.51;67.27;99774.88;4989939;28;3942;-85
2023/03/27 02:28:42;;;;;;;;;;;;;;;4.45;67.35;99775.69;4995251;28;4724;-85
2023/03/27 02:31:09;;;;;;;;;;;;;;;4.45;67.30;99785.53;4983836;28;3854;-85
2023/03/27 02:33:35;;;;;;;;;;;;;;;4.42;67.21;99773.41;4988140;28;4583;-85
2023/03/27 02:36:02;;;;;;;;;;;;;;;4.45;67.34;99775.69;4986264;28;4678;-85
2023/03/27 02:38:29;;;;;;;;;;;;;;;4.49;67.10;99771.59;5008504;28;3973;-85
2023/03/27 02:40:55;;;;;;;;;;;;;;;4.47;67.37;99770.97;4986370;28;4763;-85
2023/03/27 02:43:22;;;;;;;;;;;;;;;4.44;67.40;99774.06;5002568;28;4754;-85
2023/03/27 02:45:49;;;;;;;;;;;;;;;4.46;67.08;99779.97;5006767;28;4789;-86
2023/03/27 02:48:16;;;;;;;;;;;;;;;4.47;67.08;99778.13;5001111;28;4142;-85
2023/03/27 02:50:43;;;;;;;;;;;;;;;4.43;67.21;99779.56;4989041;28;3787;-84
2023/03/27 02:53:10;;;;;;;;;;;;;;;4.38;67.42;99774.81;5002604;28;4814;-85
2023/03/27 02:55:36;;;;;;;;;;;;;;;4.44;67.02;99770.53;4996375;28;4798;-85
2023/03/27 02:58:04;;;;;;;;;;;;;;;4.42;67.17;99770.75;4991009;28;4559;-85
2023/03/27 03:00:32;;;;;;;;;;;;;;;4.40;67.20;99767.44;4994818;28;3842;-86
2023/03/27 03:02:59;;;;;;;;;;;;;;;4.46;67.02;99763.16;4993698;28;4746;-86
2023/03/27 03:05:25;;;;;;;;;;;;;;;4.49;66.79;99768.09;4991740;28;4032;-85
2023/03/27 03:07:53;;;;;;;;;;;;;;;4.41;67.06;99769.13;4989216;28;4808;-85
2023/03/27 03:10:20;;;;;;;;;;;;;;;4.39;67.29;99767.66;5014768;28;4478;-85
2023/03/27 03:12:46;;;;;;;;;;;;;;;4.41;67.37;99768.25;4992199;28;4848;-85
2023/03/27 03:15:13;;;;;;;;;;;;;;;4.43;67.07;99766.22;5005226;28;4480;-85
2023/03/27 03:17:39;;;;;;;;;;;;;;;4.41;66.92;99765.59;5008820;28;4881;-85
2023/03/27 03:20:08;;;;;;;;;;;;;;;4.43;66.88;99756.38;4991547;28;5037;-84
2023/03/27 03:22:35;;;;;;;;;;;;;;;4.52;66.67;99765.03;4988979;28;4837;-85
2023/03/27 03:25:01;;;;;;;;;;;;;;;4.45;66.55;99756.19;5006365;28;3853;-85
2023/03/27 03:27:28;;;;;;;;;;;;;;;4.43;66.94;99769.72;5002423;28;5053;-86
2023/03/27 03:29:55;;;;;;;;;;;;;;;4.46;66.75;99761.31;5003600;28;4663;-85
2023/03/27 03:32:22;;;;;;;;;;;;;;;4.47;66.89;99775.47;4985712;28;4369;-86
2023/03/27 03:34:48;;;;;;;;;;;;;;;4.47;66.74;99776.31;4991220;28;3955;-86
2023/03/27 03:37:15;;;;;;;;;;;;;;;4.52;66.56;99779.19;5001734;28;4697;-85
2023/03/27 03:39:42;;;;;;;;;;;;;;;4.52;66.79;99783.69;5001113;28;4436;-86
2023/03/27 03:42:08;;;;;;;;;;;;;;;4.48;66.87;99787.81;5009496;28;3855;-85
2023/03/27 03:44:36;;;;;;;;;;;;;;;4.50;66.41;99791.06;4993601;28;4987;-86
2023/03/27 03:47:02;;;;;;;;;;;;;;;4.46;66.71;99801.31;4991414;28;4138;-85
2023/03/27 03:49:29;;;;;;;;;;;;;;;4.44;66.73;99808.72;4993211;28;4645;-85
2023/03/27 03:51:56;;;;;;;;;;;;;;;4.46;66.69;99813.84;4987372;28;4597;-85
2023/03/27 03:54:22;;;;;;;;;;;;;;;4.44;66.76;99824.72;5004115;28;3889;-85
2023/03/27 03:56:49;;;;;;;;;;;;;;;4.41;66.57;99826.94;5011759;28;4460;-85
2023/03/27 03:59:16;;;;;;;;;;;;;;;4.47;66.90;99836.81;5010944;28;5003;-85
2023/03/27 04:01:42;;;;;;;;;;;;;;;4.41;66.73;99838.44;5002291;28;4908;-85
2023/03/27 04:04:10;;;;;;;;;;;;;;;4.48;66.60;99838.47;5008006;28;4609;-86
2023/03/27 04:06:37;;;;;;;;;;;;;;;4.53;66.46;99842.19;4993701;28;4841;-85
2023/03/27 04:09:04;;;;;;;;;;;;;;;4.49;66.49;99840.09;5019737;28;5259;-84
2023/03/27 04:11:31;;;;;;;;;;;;;;;4.54;66.00;99835.00;4994849;28;4738;-85
2023/03/27 04:13:57;;;;;;;;;;;;;;;4.49;66.54;99832.91;5011794;28;4910;-85
2023/03/27 04:16:24;;;;;;;;;;;;;;;4.52;66.18;99831.72;5023134;28;5062;-85
2023/03/27 04:19:17;;;;;;;;;;;;;;;4.46;66.54;99835.97;5013464;28;4524;-85
2023/03/27 04:22:08;;;;;;;;;;;;;;;4.52;66.20;99832.53;5016378;28;4670;-85
2023/03/27 04:25:01;;;;;;;;;;;;;;;4.41;66.42;99838.44;5018625;28;4999;-84
2023/03/27 04:27:52;;;;;;;;;;;;;;;4.46;66.44;99840.50;5016199;28;4420;-84
2023/03/27 04:30:44;;;;;;;;;;;;;;;4.45;66.54;99846.88;5018031;28;4762;-84
2023/03/27 04:33:38;;;;;;;;;;;;;;;4.44;66.46;99843.38;5010350;28;4852;-83
2023/03/27 04:36:29;;;;;;;;;;;;;;;4.39;66.47;99837.81;5011250;28;4676;-85
2023/03/27 04:39:21;;;;;;;;;;;;;;;4.39;66.64;99850.31;5016529;28;4611;-85
2023/03/27 04:42:14;;;;;;;;;;;;;;;4.44;66.46;99850.53;5014451;28;4953;-83
2023/03/27 04:45:06;;;;;;;;;;;;;;;4.47;66.21;99855.47;5015546;28;4771;-85
2023/03/27 04:47:59;;;;;;;;;;;;;;;4.43;66.44;99852.38;5015311;28;4017;-85
2023/03/27 04:50:50;;;;;;;;;;;;;;;4.50;66.24;99847.91;5022359;28;5094;-85
2023/03/27 04:53:42;;;;;;;;;;;;;;;4.49;66.16;99850.78;5023165;28;4689;-84
2023/03/27 04:56:34;;;;;;;;;;;;;;;4.43;66.15;99855.03;5015517;28;4492;-84
2023/03/27 04:59:29;;;;;;;;;;;;;;;4.46;66.32;99856.50;5015673;28;4953;-84
2023/03/27 05:02:21;;;;;;;;;;;;;;;4.50;66.00;99865.75;5011427;28;4682;-85
2023/03/27 05:05:13;;;;;;;;;;;;;;;4.42;66.10;99860.59;5012419;28;5086;-83
2023/03/27 05:07:40;;;;;;;;;;;;;;;4.51;66.02;99876.22;5003561;28;4437;-84
2023/03/27 05:10:06;;;;;;;;;;;;;;;4.41;65.99;99881.09;5014484;28;4586;-84
2023/03/27 05:12:58;;;;;;;;;;;;;;;4.45;66.30;99892.19;5017865;28;4749;-83
2023/03/27 05:15:50;;;;;;;;;;;;;;;4.48;66.01;99889.13;5016068;28;4851;-85
2023/03/27 05:18:43;;;;;;;;;;;;;;;4.44;65.94;99891.38;5020281;28;4761;-83
2023/03/27 05:21:35;;;;;;;;;;;;;;;4.42;66.30;99897.91;5015116;28;4777;-86
2023/03/27 05:24:27;;;;;;;;;;;;;;;4.41;66.33;99889.09;5013022;28;4774;-85
2023/03/27 05:27:20;;;;;;;;;;;;;;;4.44;66.32;99891.38;5011423;28;4947;-84
2023/03/27 05:30:11;;;;;;;;;;;;;;;4.45;65.97;99889.53;5003417;28;4508;-85
2023/03/27 05:33:03;;;;;;;;;;;;;;;4.42;66.24;99892.59;5014941;28;4502;-84
2023/03/27 05:35:56;;;;;;;;;;;;;;;4.47;65.98;99895.47;5009327;28;4536;-83
2023/03/27 05:38:47;;;;;;;;;;;;;;;4.43;66.18;99900.38;5010965;28;4977;-83
2023/03/27 05:41:40;;;;;;;;;;;;;;;4.42;66.21;99903.25;4998662;28;4603;-85
2023/03/27 05:44:31;;;;;;;;;;;;;;;4.37;66.39;99901.16;4997001;28;4517;-85
2023/03/27 05:47:25;;;;;;;;;;;;;;;4.48;65.76;99905.13;4998040;28;3803;-83
2023/03/27 05:50:17;;;;;;;;;;;;;;;4.46;65.86;99912.50;4995765;28;4567;-85
2023/03/27 05:53:08;;;;;;;;;;;;;;;4.49;65.87;99912.09;5020888;28;4878;-83
2023/03/27 05:56:01;;;;;;;;;;;;;;;4.37;66.47;99916.34;5014867;28;5735;-84
2023/03/27 05:59:02;;;;;;;;;;;;;;;4.42;66.09;99919.25;5015883;28;5074;-85
2023/03/27 06:01:53;;;;;;;;;;;;;;;4.40;66.07;99916.75;5015461;28;4974;-84
2023/03/27 06:04:44;;;;;;;;;;;;;;;4.48;65.93;99913.13;5017722;28;4784;-84
2023/03/27 06:07:37;;;;;;;;;;;;;;;4.39;66.21;99909.78;5016686;28;5081;-84
2023/03/27 06:10:28;;;;;;;;;;;;;;;4.45;65.98;99921.53;5019505;28;2547;-85
2023/03/27 06:13:20;;;;;;;;;;;;;;;4.40;65.96;99922.09;5020542;28;4824;-83
2023/03/27 06:16:13;;;;;;;;;;;;;;;4.49;65.62;99917.44;5020284;28;4790;-85
2023/03/27 06:19:06;;;;;;;;;;;;;;;4.42;66.13;99917.41;5016348;28;4731;-85
2023/03/27 06:21:57;;;;;;;;;;;;;;;4.37;66.15;99914.50;5016032;28;4748;-84
2023/03/27 06:24:48;;;;;;;;;;;;;;;4.49;65.71;99928.91;5016557;28;4820;-84
2023/03/27 06:27:40;;;;;;;;;;;;;;;4.46;65.73;99931.16;5009214;28;3731;-82
2023/03/27 06:30:32;;;;;;;;;;;;;;;4.49;65.73;99933.44;5013118;28;4908;-84
2023/03/27 06:33:26;;;;;;;;;;;;;;;4.44;65.85;99944.72;5015121;28;4843;-86
2023/03/27 06:36:18;;;;;;;;;;;;;;;4.48;65.72;99943.28;5015166;28;4628;-83
2023/03/27 06:39:09;;;;;;;;;;;;;;;4.47;65.89;99932.81;5017777;28;4382;-84
2023/03/27 06:41:36;;;;;;;;;;;;;;;4.55;65.48;99944.13;5002079;28;5046;-86
2023/03/27 06:44:03;;;;;;;;;;;;;;;4.44;65.62;99958.03;5004995;28;3855;-85
2023/03/27 06:46:54;;;;;;;;;;;;;;;4.42;65.68;99956.59;5004625;28;4800;-85
2023/03/27 06:49:46;;;;;;;;;;;;;;;4.47;65.83;99962.97;5009611;28;4820;-85
2023/03/27 06:52:38;;;;;;;;;;;;;;;4.46;65.92;99960.50;5020368;28;4749;-84
2023/03/27 06:55:30;;;;;;;;;;;;;;;4.52;65.69;99965.88;5017850;28;4963;-84
2023/03/27 06:58:22;;;;;;;;;;;;;;;4.44;66.03;99970.53;5012150;28;5069;-84
2023/03/27 07:01:14;;;;;;;;;;;;;;;4.48;65.45;99969.97;5003736;28;3917;-85
2023/03/27 07:04:06;;;;;;;;;;;;;;;4.54;65.57;99965.69;5007836;28;4424;-85
2023/03/27 07:06:58;;;;;;;;;;;;;;;4.51;65.47;99968.75;5010814;28;4532;-84
2023/03/27 07:09:50;;;;;;;;;;;;;;;4.49;65.66;99973.44;5011160;28;4563;-83
2023/03/27 07:12:41;;;;;;;;;;;;;;;4.48;65.87;99969.97;5013642;28;4695;-85
2023/03/27 07:15:34;;;;;;;;;;;;;;;4.49;65.62;99976.09;5010529;28;4576;-85
2023/03/27 07:18:26;;;;;;;;;;;;;;;4.51;65.71;99988.22;5012460;28;4663;-85
2023/03/27 07:21:19;;;;;;;;;;;;;;;4.46;65.83;99997.84;5010188;28;4643;-85
2023/03/27 07:24:11;;;;;;;;;;;;;;;4.59;65.45;99999.75;5011121;28;4484;-84
2023/03/27 07:27:03;;;;;;;;;;;;;;;4.52;65.69;100008.53;5009946;28;4651;-85
2023/03/27 07:29:58;;;;;;;;;;;;;;;4.53;65.64;100006.72;5010472;28;4473;-86
2023/03/27 07:32:50;;;;;;;;;;;;;;;4.47;65.68;99997.66;5016247;28;3962;-87
2023/03/27 07:35:41;;;;;;;;;;;;;;;4.49;65.88;100008.09;5018935;28;4319;-87
2023/03/27 07:38:33;;;;;;;;;;;;;;;4.53;65.69;100002.22;5009995;28;4764;-86
2023/03/27 07:41:24;;;;;;;;;;;;;;;4.49;65.78;100000.94;5011570;28;4228;-88
2023/03/27 07:44:17;;;;;;;;;;;;;;;4.47;65.92;100010.97;5018164;28;4864;-87
2023/03/27 07:47:08;;;;;;;;;;;;;;;4.52;65.71;100011.22;5020549;28;4903;-87
2023/03/27 07:50:01;;;;;;;;;;;;;;;4.63;65.50;100025.03;5020425;28;4571;-88
2023/03/27 07:52:53;;;;;;;;;;;;;;;4.64;65.38;100013.34;5022515;28;4928;-88
2023/03/27 07:55:47;;;;;;;;;;;;;;;4.60;65.57;100020.09;5018312;28;4017;-88
2023/03/27 07:58:38;;;;;;;;;;;;;;;4.60;65.44;100020.09;5016362;28;4785;-87
2023/03/27 08:01:31;;;;;;;;;;;;;;;4.62;65.53;100023.38;5023328;28;4729;-86
2023/03/27 08:04:22;;;;;;;;;;;;;;;4.58;65.68;100030.13;5027776;28;4786;-87
2023/03/27 08:07:14;;;;;;;;;;;;;;;4.62;65.70;100029.56;5025177;28;4890;-86
2023/03/27 08:10:06;;;;;;;;;;;;;;;4.68;65.25;100033.31;5023475;28;4777;-84
2023/03/27 08:12:59;;;;;;;;;;;;;;;4.73;65.23;100034.34;5026734;28;5188;-85
2023/03/27 08:15:51;;;;;;;;;;;;;;;4.74;65.31;100029.84;5013501;28;5002;-87
2023/03/27 08:18:45;;;;;;;;;;;;;;;4.77;65.18;100030.28;5022215;28;4601;-85
2023/03/27 08:21:36;;;;;;;;;;;;;;;4.72;65.26;100031.88;5010171;28;4017;-85
2023/03/27 08:24:28;;;;;;;;;;;;;;;4.69;65.47;100034.94;5008182;28;4636;-86
2023/03/27 08:27:20;;;;;;;;;;;;;;;4.67;65.56;100043.13;5008000;28;4709;-86
2023/03/27 08:29:48;;;;;;;;;;;;;;;4.73;65.24;100044.19;4999803;28;4907;-83
2023/03/27 08:32:14;;;;;;;;;;;;;;;4.75;65.56;100044.84;5014393;28;4788;-84
2023/03/27 08:37:57;;;;;;;;;;;;;;;4.72;65.61;100045.22;4950004;28;4821;-81
2023/03/27 08:40:49;;;;;;;;;;;;;;;4.77;65.51;100040.97;4951399;28;5033;-81
2023/03/27 08:43:19;;;;;;;;;;;;;;;4.78;65.53;100050.59;4948700;28;4943;-81
2023/03/27 08:46:06;;;;;;;;;;;;;;;4.80;65.44;100054.94;4952818;28;4856;-81
2023/03/27 08:48:55;;;;;;;;;;;;;;;4.77;65.67;100054.31;4951230;28;4864;-82
2023/03/27 08:51:22;;;;;;;;;;;;;;;4.78;65.55;100053.28;4949134;28;4964;-79
2023/03/27 08:53:48;;;;;;;;;;;;;;;4.81;65.48;100052.06;4964732;28;5202;-80
2023/03/27 08:56:15;;;;;;;;;;;;;;;4.84;65.68;100057.00;4945512;28;4730;-80
2023/03/27 08:58:41;;;;;;;;;;;;;;;4.82;65.66;100064.38;4965464;28;5342;-81
2023/03/27 09:01:08;;;;;;;;;;;;;;;4.78;65.89;100061.28;4950498;28;4961;-80
2023/03/27 09:03:35;;;;;;;;;;;;;;;4.85;65.53;100068.50;4963225;28;5027;-79
2023/03/27 09:06:01;;;;;;;;;;;;;;;4.84;65.69;100069.53;4947781;28;4988;-81
2023/03/27 09:08:28;;;;;;;;;;;;;;;4.88;65.60;100068.97;4947982;28;5043;-80
2023/03/27 09:10:55;;;;;;;;;;;;;;;4.86;65.41;100071.00;4947873;28;5177;-80
2023/03/27 09:13:22;;;;;;;;;;;;;;;4.87;65.80;100067.28;4966293;28;5012;-80
2023/03/27 09:15:48;;;;;;;;;;;;;;;4.90;65.79;100072.25;4945041;28;5153;-80
2023/03/27 09:18:15;;;;;;;;;;;;;;;4.90;65.54;100082.09;4938176;28;5067;-80
2023/03/27 09:20:41;;;;;;;;;;;;;;;4.93;65.71;100084.38;4937412;28;4767;-81
2023/03/27 09:23:08;;;;;;;;;;;;;;;4.91;65.98;100094.41;4929482;28;4707;-79
2023/03/27 09:25:34;;;;;;;;;;;;;;;4.94;65.73;100094.88;4950769;28;4704;-80
2023/03/27 09:28:02;;;;;;;;;;;;;;;4.94;65.82;100091.34;4954471;28;4144;-78
2023/03/27 09:30:28;;;;;;;;;;;;;;;4.92;65.82;100101.41;4952875;28;4700;-80
2023/03/27 09:32:55;;;;;;;;;;;;;;;4.99;65.71;100097.75;4947003;28;4334;-77
2023/03/27 09:35:22;;;;;;;;;;;;;;;4.94;65.96;100100.22;4952171;28;4825;-80
2023/03/27 09:37:48;;;;;;;;;;;;;;;4.95;65.83;100106.38;4954419;28;4372;-78
2023/03/27 09:40:15;;;;;;;;;;;;;;;4.95;65.91;100099.19;4968190;28;4881;-79
2023/03/27 09:42:42;;;;;;;;;;;;;;;5.00;65.73;100112.78;4959836;28;4697;-79
2023/03/27 09:45:08;;;;;;;;;;;;;;;4.97;65.92;100107.81;4958035;28;5013;-80
2023/03/27 09:47:36;;;;;;;;;;;;;;;5.01;65.97;100108.25;4968825;28;3953;-79
2023/03/27 09:50:02;;;;;;;;;;;;;;;5.03;65.83;100108.91;4953301;28;4003;-79
2023/03/27 09:52:29;;;;;;;;;;;;;;;4.98;66.05;100113.97;4954400;28;4517;-80
2023/03/27 09:54:56;;;;;;;;;;;;;;;4.99;66.11;100118.28;4952961;28;4712;-78
2023/03/27 09:57:22;;;;;;;;;;;;;;;5.01;66.02;100118.94;4972695;28;4717;-79
2023/03/27 09:59:49;;;;;;;;;;;;;;;5.01;66.25;100132.28;4955511;28;4653;-79
2023/03/27 10:02:15;;;;;;;;;;;;;;;5.12;65.75;100129.09;4961452;28;5514;-78
2023/03/27 10:04:42;;;;;;;;;;;;;;;4.32;58.00;100131.03;4966150;28;4992;-78
2023/03/27 10:07:09;;;;;;;;;;;;;;;4.86;63.23;100123.53;4966258;28;4945;-78
2023/03/27 10:09:35;;;;;;;;;;;;;;;4.94;63.45;100132.22;4966415;28;5322;-78
2023/03/27 10:12:12;;;;;;;;;;;;;;;5.00;63.80;100133.31;4968853;28;4911;-79
2023/03/27 10:14:39;;;;;;;;;;;;;;;5.05;63.90;100138.03;4967058;28;5074;-78
2023/03/27 10:17:05;;;;;;;;;;;;;;;5.10;63.96;100143.63;4967400;28;5035;-77
2023/03/27 10:19:32;;;;;;;;;;;;;;;5.13;64.00;100146.75;4981974;28;4975;-77
2023/03/27 10:21:59;;;;;;;;;;;;;;;5.14;64.49;100144.88;4968597;28;5224;-78
2023/03/27 10:24:25;;;;;;;;;;;;;;;5.17;64.52;100153.31;4968385;28;5570;-78
2023/03/27 10:26:52;;;;;;;;;;;;;;;5.17;64.44;100150.66;4969314;28;4980;-78
2023/03/27 10:29:19;;;;;;;;;;;;;;;5.14;64.90;100155.56;4986379;28;5054;-77
2023/03/27 10:31:45;;;;;;;;;;;;;;;5.11;65.15;100155.97;4986791;28;4709;-77
2023/03/27 10:34:12;;;;;;;;;;;;;;;5.19;65.00;100163.81;4970986;28;5779;-79
2023/03/27 10:36:39;;;;;;;;;;;;;;;5.17;65.17;100171.19;4966683;28;4958;-78
2023/03/27 10:39:06;;;;;;;;;;;;;;;5.18;65.40;100168.34;4973408;28;4976;-78
2023/03/27 10:41:32;;;;;;;;;;;;;;;5.18;65.29;100171.03;4990786;28;5263;-77
2023/03/27 10:43:59;;;;;;;;;;;;;;;5.18;65.50;100173.69;4990780;28;5159;-77
2023/03/27 10:46:26;;;;;;;;;;;;;;;5.18;65.49;100181.69;4973017;28;4985;-79
2023/03/27 10:48:53;;;;;;;;;;;;;;;5.21;65.51;100175.97;4973275;28;5029;-77
2023/03/27 10:51:19;;;;;;;;;;;;;;;5.24;65.55;100172.09;4989025;28;4940;-78
2023/03/27 10:53:47;;;;;;;;;;;;;;;5.26;65.28;100180.72;4991304;28;4849;-78
2023/03/27 10:56:15;;;;;;;;;;;;;;;5.24;65.53;100182.78;4973706;28;4992;-78
2023/03/27 10:58:41;;;;;;;;;;;;;;;5.22;65.72;100177.59;4980973;28;5180;-78
2023/03/27 11:01:09;;;;;;;;;;;;;;;5.23;65.89;100186.44;4990232;28;5130;-78
2023/03/27 11:03:37;;;;;;;;;;;;;;;5.21;65.80;100185.81;4972395;28;5027;-78
2023/03/27 11:06:04;;;;;;;;;;;;;;;5.21;66.03;100194.66;4971909;28;5282;-77
2023/03/27 11:08:30;;;;;;;;;;;;;;;5.28;65.77;100204.56;4990534;28;5272;-78
2023/03/27 11:10:57;;;;;;;;;;;;;;;5.28;65.98;100197.38;4990507;28;5270;-77
2023/03/27 11:13:25;;;;;;;;;;;;;;;5.30;65.88;100200.69;4988988;28;5095;-79
2023/03/27 11:15:52;;;;;;;;;;;;;;;5.39;64.71;100207.53;4987954;28;5343;-77
2023/03/27 11:18:19;;;;;;;;;;;;;;;5.30;65.00;100202.53;4989209;28;5146;-77
2023/03/27 11:20:46;;;;;;;;;;;;;;;5.28;65.37;100210.72;4971004;28;4714;-76
2023/03/27 11:23:12;;;;;;;;;;;;;;;5.31;65.18;100212.19;4970407;28;5169;-79
2023/03/27 11:25:39;;;;;;;;;;;;;;;5.31;65.52;100215.69;4989372;28;4992;-77
2023/03/27 11:28:06;;;;;;;;;;;;;;;5.31;65.57;100210.34;4990426;28;5040;-78
2023/03/27 11:30:33;;;;;;;;;;;;;;;5.30;65.69;100216.72;4969067;28;5112;-77
2023/03/27 11:32:59;;;;;;;;;;;;;;;5.34;65.64;100223.31;4988043;28;4854;-78
2023/03/27 11:35:26;;;;;;;;;;;;;;;5.36;65.83;100218.59;4988217;28;5087;-77
2023/03/27 11:37:53;;;;;;;;;;;;;;;5.34;65.82;100225.16;4972495;28;5145;-77
2023/03/27 11:40:19;;;;;;;;;;;;;;;5.39;65.64;100225.41;4989611;28;5008;-79
2023/03/27 11:42:46;;;;;;;;;;;;;;;5.37;65.75;100230.94;4987812;28;5514;-77
2023/03/27 11:45:12;;;;;;;;;;;;;;;5.42;65.70;100233.03;4981929;28;4953;-78
2023/03/27 11:47:39;;;;;;;;;;;;;;;5.36;66.00;100237.28;4989510;28;5543;-77
2023/03/27 11:50:06;;;;;;;;;;;;;;;5.42;66.05;100230.34;4991305;28;5295;-78
2023/03/27 11:52:33;;;;;;;;;;;;;;;5.44;65.93;100233.63;4987095;28;5088;-77
2023/03/27 11:55:05;;;;;;;;;;;;;;;5.43;66.03;100229.34;4987267;28;5655;-78
2023/03/27 11:57:32;;;;;;;;;;;;;;;5.47;65.92;100236.78;4970613;28;5453;-78
2023/03/27 11:59:58;;;;;;;;;;;;;;;5.46;65.92;100236.94;4988363;28;5254;-78
2023/03/27 12:02:26;;;;;;;;;;;;;;;5.40;66.27;100235.06;4988456;28;4711;-80
2023/03/27 12:04:53;;;;;;;;;;;;;;;5.44;66.33;100234.50;4987246;28;5119;-78
2023/03/27 12:07:21;;;;;;;;;;;;;;;5.49;65.90;100230.41;4985686;28;5015;-76
2023/03/27 12:09:51;;;;;;;;;;;;;;;5.51;66.02;100239.06;4983957;28;4979;-77
2023/03/27 12:12:18;;;;;;;;;;;;;;;5.47;66.20;100241.25;4970732;28;5723;-78
2023/03/27 12:14:44;;;;;;;;;;;;;;;5.51;66.22;100247.06;4979698;28;5170;-77
2023/03/27 12:17:11;;;;;;;;;;;;;;;5.54;66.34;100247.50;4976165;28;5068;-76
2023/03/27 12:19:37;;;;;;;;;;;;;;;5.55;66.14;100238.47;4989474;28;5087;-76
2023/03/27 12:22:04;;;;;;;;;;;;;;;5.52;66.28;100241.50;4967894;28;5310;-76
2023/03/27 12:24:30;;;;;;;;;;;;;;;5.54;66.30;100241.34;4963294;28;4829;-77
2023/03/27 12:26:57;;;;;;;;;;;;;;;5.60;66.27;100240.56;4971458;28;5881;-75
2023/03/27 12:29:24;;;;;;;;;;;;;;;5.60;66.27;100244.06;4988622;28;4937;-76
2023/03/27 12:31:51;;;;;;;;;;;;;;;5.61;66.09;100248.38;4966728;28;5392;-75
2023/03/27 12:34:18;;;;;;;;;;;;;;;5.61;66.08;100252.88;4978098;28;5045;-77
2023/03/27 12:36:46;;;;;;;;;;;;;;;5.61;66.24;100255.56;4976651;28;4750;-76
2023/03/27 12:39:13;;;;;;;;;;;;;;;5.59;66.19;100254.91;4987793;28;5252;-76
2023/03/27 12:41:40;;;;;;;;;;;;;;;5.68;66.18;100265.28;4986518;28;5234;-76
2023/03/27 12:44:06;;;;;;;;;;;;;;;5.66;66.28;100261.97;4988148;28;5546;-75
2023/03/27 12:46:33;;;;;;;;;;;;;;;5.68;66.22;100256.44;4968950;28;5006;-76
2023/03/27 12:48:59;;;;;;;;;;;;;;;5.67;66.29;100270.81;4970060;28;5226;-76
2023/03/27 12:51:26;;;;;;;;;;;;;;;5.65;66.52;100256.84;4977009;28;4503;-79
2023/03/27 12:53:52;;;;;;;;;;;;;;;5.68;66.46;100251.94;4977273;28;5244;-76
2023/03/27 12:56:19;;;;;;;;;;;;;;;5.67;66.49;100263.63;4984116;28;4782;-76
2023/03/27 12:58:45;;;;;;;;;;;;;;;5.74;66.25;100263.69;4973567;28;4540;-75
2023/03/27 13:01:12;;;;;;;;;;;;;;;5.73;66.29;100270.03;4970576;28;4847;-76
2023/03/27 13:03:38;;;;;;;;;;;;;;;5.74;66.32;100266.34;4981317;28;4919;-75
2023/03/27 13:06:05;;;;;;;;;;;;;;;5.77;66.19;100262.47;4973205;28;4472;-77
2023/03/27 13:08:33;;;;;;;;;;;;;;;5.73;66.60;100266.53;4981735;28;4900;-78
2023/03/27 13:10:59;;;;;;;;;;;;;;;5.72;66.55;100259.56;4958037;28;4907;-76
2023/03/27 13:13:29;;;;;;;;;;;;;;;5.77;66.45;100271.31;4971279;28;4287;-75
2023/03/27 13:15:58;;;;;;;;;;;;;;;5.79;66.42;100271.91;4973523;28;4863;-77
2023/03/27 13:18:24;;;;;;;;;;;;;;;5.79;66.49;100268.44;4972737;28;4143;-77
2023/03/27 13:20:51;;;;;;;;;;;;;;;5.80;66.68;100270.91;4969260;28;4844;-77
2023/03/27 13:23:17;;;;;;;;;;;;;;;5.83;66.48;100273.19;4971797;28;4673;-77
2023/03/27 13:25:44;;;;;;;;;;;;;;;5.80;66.63;100270.91;4975459;28;4385;-78
2023/03/27 13:28:11;;;;;;;;;;;;;;;5.87;66.68;100270.97;4971170;28;4844;-77
2023/03/27 13:30:38;;;;;;;;;;;;;;;5.86;66.70;100272.81;4973889;28;4826;-79
2023/03/27 13:33:04;;;;;;;;;;;;;;;5.86;66.51;100275.47;4970721;28;4712;-78
2023/03/27 13:35:31;;;;;;;;;;;;;;;5.87;66.51;100269.09;4954913;28;4782;-78
2023/03/27 13:37:58;;;;;;;;;;;;;;;5.86;66.69;100269.31;4970907;28;4741;-76
2023/03/27 13:40:25;;;;;;;;;;;;;;;5.86;66.64;100274.66;4977665;28;3964;-80